Time;durP1;ratioP1;P1;durP2;ratioP2;P2;SDS_P1;SDS_P2;PMS_P1;PMS_P2;Temp;Humidity;BMP_temperature;BMP_pressure;BME280_temperature;BME280_humidity;BME280_pressure;Samples;Min_cycle;Max_cycle;Signal;HPM_P1;HPM_P2
2022/08/12 00:44:41;;;;;;;9.80;6.28;;;;;;;15.32;68.43;100069.88;5052630;28;20052;-59
2022/08/12 00:47:07;;;;;;;9.63;6.57;;;;;;;15.34;68.76;100073.09;5052655;28;20124;-59
2022/08/12 00:49:33;;;;;;;9.73;6.90;;;;;;;15.36;68.28;100071.81;5047227;28;20060;-60
2022/08/12 00:52:08;;;;;;;10.95;6.75;;;;;;;15.34;68.64;100073.91;5072491;28;20094;-59
2022/08/12 00:54:45;;;;;;;10.82;6.55;;;;;;;15.33;67.80;100077.66;5037706;28;20075;-60
2022/08/12 00:57:13;;;;;;;9.02;5.65;;;;;;;15.33;67.51;100072.31;5072113;28;20051;-60
2022/08/12 00:59:45;;;;;;;7.30;6.10;;;;;;;15.35;68.05;100069.38;5072271;28;20044;-60
2022/08/12 01:02:24;;;;;;;9.45;6.45;;;;;;;15.35;68.10;100077.38;5054129;28;20064;-60
2022/08/12 01:13:12;;;;;;;4.63;4.22;;;;;;;15.39;65.93;100081.19;5057307;28;20052;-60
2022/08/12 01:15:38;;;;;;;8.25;6.10;;;;;;;15.40;67.10;100082.78;5056716;28;20037;-60
2022/08/12 01:18:05;;;;;;;6.40;5.60;;;;;;;15.36;67.14;100074.47;5052554;28;20041;-60
2022/08/12 01:20:51;;;;;;;9.52;5.63;;;;;;;15.27;67.23;100077.84;5052375;28;20091;-59
2022/08/12 01:23:27;;;;;;;10.07;7.47;;;;;;;15.16;69.87;100074.25;5017013;28;20536;-60
2022/08/12 01:25:55;;;;;;;11.90;6.78;;;;;;;15.00;70.32;100067.94;5071698;28;20040;-60
2022/08/12 01:28:23;;;;;;;11.40;8.27;;;;;;;14.97;70.06;100073.75;5050623;28;20095;-60
2022/08/12 01:30:49;;;;;;;10.02;7.82;;;;;;;14.92;70.60;100074.53;5062524;28;20086;-60
2022/08/12 01:33:17;;;;;;;11.02;7.43;;;;;;;14.84;71.45;100082.97;5071906;28;20044;-60
2022/08/12 01:36:03;;;;;;;13.23;7.82;;;;;;;14.74;70.96;100078.31;5071714;28;20126;-60
2022/08/12 01:38:32;;;;;;;8.52;6.85;;;;;;;14.73;70.57;100079.34;5053691;28;20047;-61
2022/08/12 01:41:00;;;;;;;9.88;7.35;;;;;;;14.80;70.36;100073.84;5063751;28;20044;-60
2022/08/12 01:43:26;;;;;;;10.73;7.07;;;;;;;14.81;70.34;100078.13;5051447;28;20106;-60
2022/08/12 01:46:21;;;;;;;14.00;7.63;;;;;;;14.82;70.57;100081.59;5033772;28;20494;-60
2022/08/12 01:48:53;;;;;;;13.00;8.18;;;;;;;14.77;70.60;100080.47;5034002;28;20079;-60
2022/08/12 01:51:30;;;;;;;8.57;7.03;;;;;;;14.74;70.46;100085.53;5051699;28;20103;-60
2022/08/12 01:54:07;;;;;;;13.00;7.25;;;;;;;14.70;70.25;100079.84;5051673;28;20037;-60
2022/08/12 01:57:00;;;;;;;13.80;7.72;;;;;;;14.69;71.02;100086.25;5051446;28;20128;-60
2022/08/12 01:59:58;;;;;;;11.32;7.13;;;;;;;14.73;70.67;100082.00;5009591;28;20064;-60
2022/08/12 02:02:30;;;;;;;10.80;6.95;;;;;;;14.79;70.19;100085.56;5014644;28;20049;-61
2022/08/12 02:11:17;;;;;;;9.70;6.55;;;;;;;14.97;69.54;100079.94;5051500;28;20055;-61
2022/08/12 02:13:57;;;;;;;9.05;7.05;;;;;;;15.12;68.71;100089.19;5034533;28;20067;-60
2022/08/12 02:17:04;;;;;;;8.32;6.85;;;;;;;15.28;67.98;100090.13;5053138;28;20047;-60
2022/08/12 02:19:48;;;;;;;6.47;5.15;;;;;;;15.55;65.96;100090.13;5024154;28;20087;-60
2022/08/12 02:22:30;;;;;;;8.55;5.65;;;;;;;15.93;64.91;100096.38;5070240;28;20052;-62
2022/08/12 02:25:29;;;;;;;6.53;4.25;;;;;;;16.31;61.94;100100.69;5031339;28;20037;-60
2022/08/12 02:27:55;;;;;;;4.88;4.40;;;;;;;16.61;60.32;100097.38;5030076;28;20053;-60
2022/08/12 02:30:23;;;;;;;4.80;4.15;;;;;;;16.92;58.63;100100.22;5030283;28;20060;-60
2022/08/12 02:32:52;;;;;;;7.53;4.47;;;;;;;17.21;58.42;100095.25;5057974;28;20052;-59
2022/08/12 02:35:25;;;;;;;5.97;5.03;;;;;;;17.47;58.18;100098.75;5071228;28;20036;-61
2022/08/12 02:37:54;;;;;;;6.57;5.07;;;;;;;17.87;57.42;100102.59;5070902;28;20055;-60
2022/08/12 02:40:21;;;;;;;5.72;4.72;;;;;;;18.09;55.76;100095.09;5052523;28;20032;-59
2022/08/12 02:42:54;;;;;;;6.25;4.57;;;;;;;18.30;53.32;100097.75;5071253;28;20037;-60
2022/08/12 02:45:31;;;;;;;5.00;3.80;;;;;;;18.57;51.90;100097.41;5071179;28;20037;-60
2022/08/12 02:47:57;;;;;;;4.50;3.80;;;;;;;18.82;52.28;100100.06;5071409;28;20407;-60
2022/08/12 02:50:26;;;;;;;7.50;4.50;;;;;;;19.20;51.22;100102.28;5038168;28;20057;-60
2022/08/12 02:52:54;;;;;;;5.18;4.50;;;;;;;19.55;51.07;100092.41;5033456;28;20116;-60
2022/08/12 02:55:22;;;;;;;7.53;4.03;;;;;;;19.78;49.87;100097.09;5032734;28;20047;-60
2022/08/12 02:57:49;;;;;;;7.72;4.78;;;;;;;20.03;50.05;100101.50;5032993;28;20049;-60
2022/08/12 03:00:17;;;;;;;5.38;4.28;;;;;;;20.18;48.84;100092.47;5050983;28;20532;-60
2022/08/12 03:02:45;;;;;;;6.70;4.00;;;;;;;20.37;47.64;100095.25;5032967;28;20048;-60
2022/08/12 03:05:14;;;;;;;8.73;4.80;;;;;;;20.56;47.53;100090.75;5050527;28;20067;-61
2022/08/12 03:07:44;;;;;;;6.35;3.80;;;;;;;20.74;46.67;100091.91;5051214;28;20136;-60
2022/08/12 03:10:11;;;;;;;6.80;4.25;;;;;;;20.82;46.35;100087.75;5065539;28;20045;-61
2022/08/12 03:12:44;;;;;;;5.88;4.60;;;;;;;20.84;47.16;100081.00;5070593;28;20467;-60
2022/08/12 03:15:13;;;;;;;10.82;6.10;;;;;;;20.89;48.85;100084.72;5070810;28;20056;-60
2022/08/12 03:17:57;;;;;;;10.80;6.88;;;;;;;21.02;50.03;100082.09;5071767;28;20040;-59
2022/08/12 03:20:23;;;;;;;15.20;6.70;;;;;;;21.03;48.94;100083.72;5074453;28;20735;-61
2022/08/12 03:22:50;;;;;;;13.27;6.70;;;;;;;21.22;48.17;100088.31;5073183;28;20044;-60
2022/08/12 03:25:26;;;;;;;13.68;7.05;;;;;;;21.30;50.19;100090.38;5056569;28;20044;-60
2022/08/12 03:27:56;;;;;;;14.13;7.50;;;;;;;21.53;50.08;100089.53;5074113;28;20513;-59
2022/08/12 03:30:30;;;;;;;;;;;;;;;21.54;50.46;100090.31;5073285;28;20081;-61
2022/08/12 03:32:56;;;;;;;24.15;9.02;;;;;;;21.62;49.63;100095.06;5032755;28;20386;-60
2022/08/12 03:35:27;;;;;;;30.88;9.25;;;;;;;21.75;47.93;100088.09;5034490;28;20115;-60
2022/08/12 03:38:03;;;;;;;31.35;8.68;;;;;;;21.75;46.98;100088.91;5016566;28;20050;-59
2022/08/12 04:02:40;;;;;;;21.65;9.90;;;;;;;22.75;47.88;100095.78;5041684;28;20049;-60
2022/08/12 04:05:10;;;;;;;21.25;9.95;;;;;;;22.89;47.75;100086.56;5048139;28;20457;-60
2022/08/12 04:07:36;;;;;;;22.15;8.27;;;;;;;22.93;46.57;100094.06;5055345;28;20048;-61
2022/08/12 04:10:02;;;;;;;22.42;9.00;;;;;;;23.00;47.05;100099.88;5054153;28;20103;-61
2022/08/12 04:15:18;;;;;;;15.15;7.32;;;;;;;23.16;47.25;100103.06;5053381;28;20045;-61
2022/08/12 04:17:46;;;;;;;10.02;6.40;;;;;;;23.29;46.95;100099.53;5053619;28;20494;-60
2022/08/12 04:20:17;;;;;;;9.65;6.13;;;;;;;23.28;47.06;100097.94;5036008;28;20040;-59
2022/08/12 04:22:44;;;;;;;13.68;6.32;;;;;;;23.45;47.72;100100.78;5036368;28;20132;-61
2022/08/12 04:25:11;;;;;;;12.60;6.30;;;;;;;23.60;47.69;100102.34;5057056;28;20519;-61
2022/08/12 04:27:38;;;;;;;12.82;6.03;;;;;;;23.68;46.92;100101.63;5073445;28;20048;-60
2022/08/12 04:30:06;;;;;;;13.05;5.68;;;;;;;23.89;45.63;100101.94;5072526;28;20040;-61
2022/08/12 04:32:34;;;;;;;15.13;6.00;;;;;;;23.96;45.37;100096.09;5055330;28;20118;-60
2022/08/12 04:35:00;;;;;;;11.02;5.85;;;;;;;24.03;45.13;100099.97;5072739;28;20401;-60
2022/08/12 04:37:26;;;;;;;10.77;5.70;;;;;;;24.20;44.49;100101.16;5072900;28;20521;-61
2022/08/12 04:39:52;;;;;;;11.48;5.95;;;;;;;24.28;43.84;100094.19;5072698;28;20508;-60
2022/08/12 04:42:18;;;;;;;10.82;6.35;;;;;;;24.39;43.50;100093.59;5072243;28;20051;-60
2022/08/12 04:44:44;;;;;;;13.15;6.00;;;;;;;24.39;43.61;100096.31;5067947;28;20033;-59
2022/08/12 04:47:15;;;;;;;10.55;5.03;;;;;;;24.46;43.55;100098.59;5052327;28;20055;-59
2022/08/12 04:49:43;;;;;;;11.70;5.60;;;;;;;24.52;43.64;100099.25;5034328;28;20510;-60
2022/08/12 04:52:10;;;;;;;12.90;5.72;;;;;;;24.45;45.13;100095.09;5070273;28;20040;-60
2022/08/12 04:54:36;;;;;;;11.93;5.47;;;;;;;24.34;45.36;100091.03;5072206;28;20044;-61
2022/08/12 04:57:02;;;;;;;9.00;5.40;;;;;;;24.13;45.38;100090.78;5054002;28;20048;-61
2022/08/12 04:59:29;;;;;;;15.05;5.55;;;;;;;24.06;45.74;100095.84;5071046;28;20040;-62
2022/08/12 05:01:56;;;;;;;13.18;5.88;;;;;;;24.00;45.76;100091.63;5072117;28;20049;-61
2022/08/12 05:04:24;;;;;;;12.27;6.30;;;;;;;23.96;45.62;100091.47;5068041;28;20070;-61
2022/08/12 05:06:50;;;;;;;12.32;6.40;;;;;;;23.88;45.97;100094.13;5051722;28;20055;-61
2022/08/12 05:09:16;;;;;;;14.27;8.15;;;;;;;23.83;46.03;100094.25;5052218;28;20128;-59
2022/08/12 05:11:42;;;;;;;16.60;6.65;;;;;;;23.82;46.00;100096.16;5052754;28;20437;-61
2022/08/12 05:14:10;;;;;;;13.18;7.35;;;;;;;23.71;45.89;100102.94;5034231;28;20029;-62
2022/08/12 05:16:36;;;;;;;13.02;6.20;;;;;;;23.55;46.18;100095.13;5051804;28;20049;-60
2022/08/12 05:19:02;;;;;;;10.75;5.70;;;;;;;23.43;46.22;100092.16;5051487;28;20064;-60
2022/08/12 05:21:27;;;;;;;9.45;5.68;;;;;;;23.42;46.38;100087.09;5051699;28;20041;-60
2022/08/12 05:23:53;;;;;;;8.00;5.07;;;;;;;23.31;46.28;100087.31;5051691;28;20498;-60
2022/08/12 05:26:19;;;;;;;7.78;4.75;;;;;;;23.28;47.56;100093.31;5033917;28;20051;-61
2022/08/12 05:28:45;;;;;;;9.25;5.28;;;;;;;23.11;48.44;100098.56;5051886;28;20044;-61
2022/08/12 05:31:11;;;;;;;7.70;4.43;;;;;;;23.03;47.25;100097.41;5034582;28;20041;-61
2022/08/12 05:33:38;;;;;;;9.35;4.43;;;;;;;23.05;47.22;100099.78;5051651;28;20047;-60
2022/08/12 05:36:11;;;;;;;8.35;3.92;;;;;;;22.94;45.94;100093.75;5058256;28;20437;-61
2022/08/12 05:38:55;;;;;;;5.53;3.58;;;;;;;22.97;46.62;100103.19;5071904;28;20037;-61
2022/08/12 05:41:25;;;;;;;5.85;3.63;;;;;;;22.96;46.59;100104.31;5070892;28;20128;-61
2022/08/12 05:43:50;;;;;;;4.07;3.13;;;;;;;22.84;46.36;100104.78;5071309;28;20044;-61
2022/08/12 05:46:17;;;;;;;3.58;2.92;;;;;;;22.70;45.73;100102.09;5053470;28;20052;-60
2022/08/12 05:48:42;;;;;;;5.00;2.80;;;;;;;22.65;45.27;100107.59;5051132;28;20472;-60
2022/08/12 05:51:11;;;;;;;3.35;2.50;;;;;;;22.55;44.04;100102.38;5071001;28;20040;-59
2022/08/12 05:53:39;;;;;;;2.72;2.50;;;;;;;22.61;44.31;100101.19;4984250;28;20052;-60
2022/08/12 05:56:05;;;;;;;7.18;2.90;;;;;;;22.57;46.42;100103.69;5049192;28;20118;-59
2022/08/12 05:58:33;;;;;;;3.97;3.15;;;;;;;22.61;46.00;100101.97;5033351;28;20076;-60
2022/08/12 06:01:00;;;;;;;2.72;2.20;;;;;;;22.61;44.44;100098.47;5045397;28;20087;-61
2022/08/12 06:03:26;;;;;;;2.88;2.00;;;;;;;22.72;43.49;100096.38;5047358;28;20047;-60
2022/08/12 06:05:52;;;;;;;4.03;2.40;;;;;;;22.68;43.99;100096.19;5034170;28;20044;-60
2022/08/12 06:08:18;;;;;;;3.35;2.20;;;;;;;22.74;43.66;100097.69;5047060;28;20127;-60
2022/08/12 06:10:48;;;;;;;3.25;1.77;;;;;;;22.82;41.71;100096.16;5048145;28;20076;-60
2022/08/12 06:13:14;;;;;;;2.00;1.70;;;;;;;22.88;41.17;100092.25;5048266;28;20048;-61
2022/08/12 06:15:40;;;;;;;1.70;1.60;;;;;;;22.95;40.88;100100.00;5048080;28;20063;-62
2022/08/12 06:18:10;;;;;;;2.05;1.80;;;;;;;22.95;40.50;100100.81;5049098;28;20051;-60
2022/08/12 06:20:37;;;;;;;1.75;1.65;;;;;;;23.03;40.29;100107.38;5069090;28;20135;-61
2022/08/12 06:23:04;;;;;;;3.72;2.20;;;;;;;23.04;41.30;100103.59;5069381;28;20678;-61
2022/08/12 06:25:30;;;;;;;3.85;2.10;;;;;;;22.99;42.13;100101.78;5068408;28;20174;-60
2022/08/12 06:27:57;;;;;;;3.28;2.13;;;;;;;23.02;42.37;100100.38;5049834;28;20048;-59
2022/08/12 06:30:27;;;;;;;3.55;2.13;;;;;;;23.00;41.75;100100.72;5069276;28;20052;-60
2022/08/12 06:32:53;;;;;;;4.07;2.03;;;;;;;22.99;42.30;100101.00;5056965;28;20045;-60
2022/08/12 06:35:19;;;;;;;6.20;2.03;;;;;;;22.95;41.66;100103.50;5049625;28;20037;-59
2022/08/12 06:37:48;;;;;;;2.08;1.98;;;;;;;22.98;41.13;100104.81;5049894;28;20051;-62
2022/08/12 06:42:46;;;;;;;3.42;2.30;;;;;;;23.03;40.54;100102.81;5038741;28;20133;-62
2022/08/12 06:43:02;;;;;;;2.72;1.90;;;;;;;23.00;40.54;100102.59;5048625;28;20041;-60
2022/08/12 06:45:28;;;;;;;2.28;2.03;;;;;;;23.03;41.12;100104.69;5049251;28;20048;-62
2022/08/12 06:47:55;;;;;;;2.17;2.00;;;;;;;23.09;40.97;100098.09;5048896;28;20044;-62
2022/08/12 06:50:21;;;;;;;3.05;1.80;;;;;;;23.13;41.32;100099.06;5048733;28;20056;-60
2022/08/12 06:52:47;;;;;;;3.83;2.05;;;;;;;23.19;40.23;100105.97;5050948;28;20048;-61
2022/08/12 06:55:19;;;;;;;2.40;2.20;;;;;;;23.20;39.78;100104.84;5034647;28;20040;-61
2022/08/12 06:58:04;;;;;;;2.33;1.95;;;;;;;23.24;40.06;100099.66;5051871;28;20525;-62
2022/08/12 07:00:33;;;;;;;2.75;2.10;;;;;;;23.30;40.15;100098.44;5070265;28;20044;-62
2022/08/12 07:03:00;;;;;;;2.70;2.03;;;;;;;23.34;39.90;100096.72;5068250;28;20058;-60
2022/08/12 07:05:26;;;;;;;3.47;1.95;;;;;;;23.35;39.65;100095.59;5033652;28;20415;-62
2022/08/12 07:07:52;;;;;;;2.10;1.90;;;;;;;23.34;38.87;100100.22;5017994;28;20106;-60
2022/08/12 07:10:22;;;;;;;3.55;1.73;;;;;;;23.26;38.73;100102.84;5050027;28;20032;-62
2022/08/12 07:12:53;;;;;;;2.25;2.05;;;;;;;23.23;39.53;100096.13;5068804;28;20044;-61
2022/08/12 07:15:24;;;;;;;2.10;1.90;;;;;;;23.28;40.21;100098.72;5053963;28;20465;-60
2022/08/12 07:17:57;;;;;;;3.30;2.00;;;;;;;23.29;39.85;100097.63;5070464;28;20052;-61
2022/08/12 07:20:23;;;;;;;2.72;1.90;;;;;;;23.25;40.25;100096.63;5049001;28;20044;-61
2022/08/12 07:22:49;;;;;;;2.90;2.28;;;;;;;23.33;39.83;100092.41;5069552;28;20414;-61
2022/08/12 07:25:30;;;;;;;3.05;2.75;;;;;;;23.38;39.73;100088.78;5068515;28;20041;-61
2022/08/12 07:28:01;;;;;;;4.50;2.08;;;;;;;23.46;39.70;100085.34;5067162;28;20453;-62
2022/08/12 07:30:29;;;;;;;3.15;1.92;;;;;;;23.54;40.41;100087.34;5068125;28;20048;-61
2022/08/12 07:32:55;;;;;;;2.60;2.35;;;;;;;23.53;39.47;100086.53;5069164;28;20044;-61
2022/08/12 07:35:21;;;;;;;3.67;2.50;;;;;;;23.58;39.77;100085.59;5066669;28;20127;-63
2022/08/12 07:37:49;;;;;;;2.50;2.17;;;;;;;23.60;39.90;100098.84;5069703;28;20075;-61
2022/08/12 07:40:17;;;;;;;4.53;2.63;;;;;;;23.64;39.90;100094.41;5063400;28;20076;-62
2022/08/12 07:42:43;;;;;;;3.17;2.28;;;;;;;23.74;39.43;100096.91;5049426;28;20057;-62
2022/08/12 07:45:11;;;;;;;4.15;2.40;;;;;;;23.71;39.78;100103.72;5048865;28;20079;-62
2022/08/12 07:47:38;;;;;;;4.55;2.13;;;;;;;23.77;39.37;100096.28;5049335;28;20056;-61
2022/08/12 07:50:08;;;;;;;2.75;2.10;;;;;;;23.84;39.56;100096.66;5047439;28;20056;-62
2022/08/12 07:52:34;;;;;;;5.32;2.50;;;;;;;23.83;39.91;100105.88;5049009;28;20426;-61
2022/08/12 07:55:00;;;;;;;3.13;2.28;;;;;;;23.86;39.53;100093.66;5014696;28;20102;-61
2022/08/12 07:57:26;;;;;;;6.82;2.55;;;;;;;23.86;39.78;100093.66;5030196;28;20056;-61
2022/08/12 07:59:52;;;;;;;3.90;2.42;;;;;;;23.93;39.56;100091.28;5030736;28;20042;-61
2022/08/12 08:02:17;;;;;;;3.13;2.20;;;;;;;24.02;39.47;100092.13;5047392;28;20041;-61
2022/08/12 08:04:55;;;;;;;2.90;2.58;;;;;;;24.02;39.44;100098.34;5048740;28;20354;-61
2022/08/12 08:07:22;;;;;;;2.30;2.10;;;;;;;24.03;39.98;100082.88;5063885;28;20143;-60
2022/08/12 08:09:48;;;;;;;4.00;2.90;;;;;;;24.01;39.91;100082.44;5033774;28;20094;-63
2022/08/12 08:14:59;;;;;;;3.78;2.92;;;;;;;24.04;39.85;100087.22;5050838;28;20037;-59
2022/08/12 08:17:25;;;;;;;8.75;2.50;;;;;;;24.07;39.96;100083.88;5050087;28;20095;-61
2022/08/12 08:19:54;;;;;;;7.57;2.85;;;;;;;24.01;39.66;100087.84;5046366;28;20041;-61
2022/08/12 08:22:23;;;;;;;3.23;2.33;;;;;;;24.04;39.37;100076.38;5051163;28;20041;-60
2022/08/12 08:24:55;;;;;;;4.22;2.60;;;;;;;24.11;39.00;100071.31;5068079;28;20048;-61
2022/08/12 08:27:21;;;;;;;2.65;2.33;;;;;;;24.19;39.78;100075.19;5066604;28;20186;-61
2022/08/12 08:29:47;;;;;;;2.42;2.00;;;;;;;24.33;39.57;100075.09;5068027;28;20131;-61
2022/08/12 08:32:13;;;;;;;2.65;2.33;;;;;;;24.44;38.61;100076.44;5068166;28;20048;-62
2022/08/12 08:34:39;;;;;;;4.15;2.53;;;;;;;24.44;37.97;100084.56;5049854;28;20394;-61
2022/08/12 08:37:05;;;;;;;7.32;2.53;;;;;;;24.35;38.21;100080.97;5068911;28;20043;-61
2022/08/12 08:39:31;;;;;;;4.15;2.20;;;;;;;24.40;38.11;100070.81;5069803;28;20044;-62
2022/08/12 08:44:41;;;;;;;3.35;2.20;;;;;;;24.60;38.37;100072.19;5067659;28;20094;-61
2022/08/12 08:47:08;;;;;;;7.78;2.65;;;;;;;24.65;37.89;100069.34;5068583;28;20060;-60
2022/08/12 08:49:35;;;;;;;3.22;2.20;;;;;;;24.69;37.02;100072.22;5067753;28;20048;-62
2022/08/12 08:52:07;;;;;;;2.70;2.40;;;;;;;24.66;37.06;100070.13;5067212;28;20086;-60
2022/08/12 08:54:33;;;;;;;3.88;2.83;;;;;;;24.65;37.51;100073.97;5052222;28;20036;-62
2022/08/12 08:57:00;;;;;;;4.00;2.70;;;;;;;24.72;37.13;100066.16;5030014;28;20106;-63
2022/08/12 08:59:26;;;;;;;3.72;2.40;;;;;;;24.76;38.25;100061.69;5060938;28;20521;-62
2022/08/12 09:01:52;;;;;;;4.63;2.40;;;;;;;24.75;37.86;100062.03;5049325;28;20140;-62
2022/08/12 09:04:24;;;;;;;3.30;2.42;;;;;;;24.78;38.06;100061.38;5046826;28;20091;-62
2022/08/12 09:06:53;;;;;;;3.60;2.25;;;;;;;24.82;37.95;100063.13;5047182;28;20049;-60
2022/08/12 09:09:19;;;;;;;2.95;2.58;;;;;;;24.83;38.24;100055.81;5048995;28;20037;-61
2022/08/12 09:14:29;;;;;;;4.82;3.40;;;;;;;24.69;37.78;100059.44;5047586;28;20422;-62
2022/08/12 09:16:54;;;;;;;5.50;2.65;;;;;;;24.78;37.58;100055.97;5047907;28;20052;-62
2022/08/12 09:19:20;;;;;;;5.22;3.10;;;;;;;24.83;36.90;100063.97;5048000;28;20100;-61
2022/08/12 09:21:46;;;;;;;2.40;2.20;;;;;;;24.79;36.93;100052.94;5047808;28;20139;-60
2022/08/12 09:24:17;;;;;;;4.25;2.67;;;;;;;24.82;37.20;100057.72;5047556;28;20159;-62
2022/08/12 09:26:46;;;;;;;2.92;2.38;;;;;;;24.84;37.28;100055.50;5047424;28;20155;-61
2022/08/12 09:29:19;;;;;;;2.92;2.60;;;;;;;24.88;37.49;100044.81;5047458;28;20127;-61
2022/08/12 09:31:46;;;;;;;6.97;3.20;;;;;;;24.90;37.27;100039.88;5048250;28;20558;-61
2022/08/12 09:34:12;;;;;;;3.08;2.50;;;;;;;24.98;37.50;100044.53;5047343;28;20513;-61
2022/08/12 09:36:38;;;;;;;5.30;2.80;;;;;;;24.89;36.88;100055.34;5013944;28;20037;-61
2022/08/12 09:39:05;;;;;;;2.60;2.40;;;;;;;24.86;37.13;100052.47;5048753;28;20139;-61
2022/08/12 09:41:40;;;;;;;4.05;2.90;;;;;;;24.81;37.58;100050.72;5048963;28;20128;-62
2022/08/12 09:46:51;;;;;;;5.60;2.88;;;;;;;24.74;37.60;100042.25;5047119;28;20473;-61
2022/08/12 09:49:17;;;;;;;5.57;2.53;;;;;;;24.76;37.02;100037.28;5046484;28;20049;-61
2022/08/12 09:51:43;;;;;;;2.60;2.40;;;;;;;24.86;36.39;100039.72;5047161;28;20073;-61
2022/08/12 09:54:13;;;;;;;4.25;2.10;;;;;;;24.90;36.07;100037.16;5029325;28;20085;-61
2022/08/12 09:56:40;;;;;;;4.88;2.50;;;;;;;24.97;35.56;100034.78;5047826;28;20103;-62
2022/08/12 09:59:09;;;;;;;4.65;2.42;;;;;;;25.02;35.06;100031.91;5045757;28;20111;-61
2022/08/12 10:01:39;;;;;;;2.80;2.15;;;;;;;24.98;35.53;100027.44;5045978;28;20048;-61
2022/08/12 10:04:09;;;;;;;2.20;2.00;;;;;;;24.96;35.05;100021.53;5047040;28;20489;-61
2022/08/12 10:06:37;;;;;;;3.05;2.13;;;;;;;24.95;34.38;100023.47;5048237;28;20055;-62
2022/08/12 10:09:08;;;;;;;2.13;1.83;;;;;;;24.90;34.60;100023.59;5044801;28;20157;-61
2022/08/12 10:14:18;;;;;;;2.95;2.17;;;;;;;25.08;34.62;100021.69;5046682;28;20513;-61
2022/08/12 10:16:44;;;;;;;2.25;2.05;;;;;;;25.13;34.02;100011.53;5027724;28;20036;-62
2022/08/12 10:19:11;;;;;;;5.30;2.20;;;;;;;25.18;34.76;100015.19;5045466;28;20048;-61
2022/08/12 10:21:40;;;;;;;4.68;2.17;;;;;;;25.23;34.96;100007.69;5029025;28;20144;-61
2022/08/12 10:24:07;;;;;;;3.60;2.00;;;;;;;25.28;34.92;100010.25;5046429;28;20119;-61
2022/08/12 10:29:37;;;;;;;4.40;2.20;;;;;;;25.36;34.88;100012.16;5046789;28;20394;-61
2022/08/12 10:32:08;;;;;;;9.77;3.05;;;;;;;25.32;34.34;100005.75;5045960;28;20057;-61
2022/08/12 10:34:34;;;;;;;3.08;2.20;;;;;;;25.26;34.47;100004.31;5028252;28;20040;-62
2022/08/12 10:37:01;;;;;;;2.15;1.95;;;;;;;25.25;34.45;99997.31;5050577;28;20184;-61
2022/08/12 10:39:33;;;;;;;26.05;3.90;;;;;;;25.26;33.91;100001.63;5044559;28;20044;-60
2022/08/12 10:44:59;;;;;;;3.42;2.17;;;;;;;25.36;34.17;99997.78;5042024;28;20509;-61
2022/08/12 10:47:32;;;;;;;2.90;2.22;;;;;;;25.36;34.30;100003.22;5067328;28;20057;-61
2022/08/12 10:50:02;;;;;;;3.67;2.20;;;;;;;25.30;34.34;99994.44;5069635;28;20151;-63
2022/08/12 10:52:31;;;;;;;3.80;2.20;;;;;;;25.28;34.68;99993.97;5062870;28;20413;-60
2022/08/12 10:54:58;;;;;;;2.00;1.90;;;;;;;25.37;34.63;99983.09;5048758;28;20492;-62
2022/08/12 10:57:25;;;;;;;4.00;2.00;;;;;;;25.42;34.25;99982.94;5051937;28;20098;-62
2022/08/12 10:59:56;;;;;;;2.60;1.90;;;;;;;25.37;33.38;99981.19;5068392;28;20131;-62
2022/08/12 11:02:30;;;;;;;2.17;2.00;;;;;;;25.32;33.32;99978.63;5054154;28;20045;-60
2022/08/12 11:04:57;;;;;;;2.97;1.90;;;;;;;25.31;33.76;99978.97;5048474;28;20056;-64
2022/08/12 11:07:23;;;;;;;4.07;2.00;;;;;;;25.32;33.55;99978.63;5055575;28;20052;-65
2022/08/12 11:09:49;;;;;;;5.22;2.40;;;;;;;25.35;33.47;99977.19;5050496;28;20040;-62
2022/08/12 11:12:15;;;;;;;3.20;2.10;;;;;;;25.36;33.48;99971.44;5069065;28;20094;-64
2022/08/12 11:14:41;;;;;;;2.10;1.90;;;;;;;25.35;34.45;99969.03;5051111;28;20037;-62
2022/08/12 11:17:11;;;;;;;1.92;1.83;;;;;;;25.37;34.52;99973.03;5053560;28;20064;-61
2022/08/12 11:19:38;;;;;;;3.40;2.20;;;;;;;25.39;34.07;99970.00;5049060;28;20395;-62
2022/08/12 11:22:05;;;;;;;3.33;2.17;;;;;;;25.37;34.38;99972.25;5033479;28;20489;-62
2022/08/12 11:24:31;;;;;;;2.72;1.90;;;;;;;25.31;33.83;99957.25;5066581;28;20127;-62
2022/08/12 11:26:58;;;;;;;8.43;3.28;;;;;;;25.36;33.86;99960.59;5069137;28;20143;-62
2022/08/12 11:29:25;;;;;;;3.67;2.40;;;;;;;25.38;33.88;99958.38;5067141;28;20106;-62
2022/08/12 11:31:51;;;;;;;2.45;2.15;;;;;;;25.37;34.21;99951.31;5062005;28;20088;-61
2022/08/12 11:34:18;;;;;;;2.78;2.00;;;;;;;25.43;33.73;99949.25;5031275;28;20441;-61
2022/08/12 11:36:50;;;;;;;3.45;2.20;;;;;;;25.42;33.98;99949.56;5013944;28;20049;-61
2022/08/12 11:39:15;;;;;;;3.08;2.28;;;;;;;25.43;33.95;99948.44;5047762;28;20044;-61
2022/08/12 11:41:41;;;;;;;2.42;2.10;;;;;;;25.44;33.47;99942.69;5050539;28;20048;-61
2022/08/12 11:44:07;;;;;;;3.17;2.20;;;;;;;25.41;33.02;99943.31;5034153;28;20048;-61
2022/08/12 11:46:36;;;;;;;4.00;2.00;;;;;;;25.42;32.89;99939.50;5050399;28;20045;-62
2022/08/12 11:49:03;;;;;;;1.98;1.75;;;;;;;25.43;32.64;99940.31;5052488;28;20113;-61
2022/08/12 11:51:29;;;;;;;4.35;2.17;;;;;;;25.43;32.34;99935.66;5032890;28;20037;-60
2022/08/12 11:53:56;;;;;;;2.58;1.73;;;;;;;25.43;32.20;99932.94;5054106;28;20048;-61
2022/08/12 11:56:22;;;;;;;9.98;2.45;;;;;;;25.47;32.32;99935.81;5052953;28;20133;-61
2022/08/12 11:58:48;;;;;;;4.28;2.10;;;;;;;25.49;32.52;99928.94;5052741;28;20040;-62
2022/08/12 12:01:14;;;;;;;2.78;2.10;;;;;;;25.54;32.57;99925.28;5051786;28;20508;-63
2022/08/12 12:03:40;;;;;;;2.20;2.00;;;;;;;25.52;32.13;99916.66;5043035;28;20036;-62
2022/08/12 12:06:05;;;;;;;4.22;2.42;;;;;;;25.48;32.42;99915.72;5053077;28;20045;-62
2022/08/12 12:08:31;;;;;;;3.17;2.20;;;;;;;25.49;32.70;99917.28;5052869;28;20049;-60
2022/08/12 12:10:57;;;;;;;3.33;2.40;;;;;;;25.48;32.94;99921.13;5072778;28;20493;-61
2022/08/12 12:13:23;;;;;;;6.28;2.13;;;;;;;25.44;33.22;99907.41;5052666;28;20049;-60
2022/08/12 12:15:48;;;;;;;5.78;2.63;;;;;;;25.42;33.71;99908.88;5070949;28;20123;-63
2022/08/12 12:18:24;;;;;;;3.38;2.33;;;;;;;25.44;33.90;99910.13;5054006;28;20102;-60
2022/08/12 12:20:51;;;;;;;5.30;2.30;;;;;;;25.45;33.53;99905.50;5060240;28;20045;-62
2022/08/12 12:23:17;;;;;;;4.13;2.08;;;;;;;25.48;34.04;99908.38;5052313;28;20047;-61
2022/08/12 12:25:43;;;;;;;3.63;1.98;;;;;;;25.53;33.39;99907.38;5051377;28;20037;-63
2022/08/12 12:28:09;;;;;;;2.65;2.38;;;;;;;25.49;33.61;99901.00;5051786;28;20123;-60
2022/08/12 12:30:35;;;;;;;2.38;2.17;;;;;;;25.48;33.76;99904.84;5051888;28;20131;-62
2022/08/12 12:33:01;;;;;;;3.65;2.40;;;;;;;25.43;33.70;99892.25;5052213;28;20486;-60
2022/08/12 12:35:26;;;;;;;2.20;2.00;;;;;;;25.43;33.47;99892.25;5052173;28;20144;-60
2022/08/12 12:38:03;;;;;;;3.13;2.13;;;;;;;25.40;33.65;99900.25;5051670;28;20067;-59
2022/08/12 12:40:31;;;;;;;5.55;2.38;;;;;;;25.26;34.63;99884.94;5052564;28;20099;-60
2022/08/12 12:42:57;;;;;;;5.05;2.30;;;;;;;25.27;34.74;99902.03;5052644;28;20429;-60
2022/08/12 12:45:24;;;;;;;4.35;2.45;;;;;;;25.25;34.52;99890.72;5023632;28;20088;-62
2022/08/12 12:47:55;;;;;;;2.63;2.20;;;;;;;25.25;34.57;99888.00;5042390;28;20045;-59
2022/08/12 12:50:22;;;;;;;3.55;2.35;;;;;;;25.23;34.88;99884.81;5057162;28;20469;-62
2022/08/12 12:52:48;;;;;;;2.92;2.28;;;;;;;25.23;34.71;99884.81;5069737;28;20052;-60
2022/08/12 12:55:14;;;;;;;3.08;2.45;;;;;;;25.20;35.04;99886.25;5060844;28;20045;-63
2022/08/12 12:57:41;;;;;;;5.20;2.47;;;;;;;25.17;35.34;99878.75;5033878;28;20521;-61
2022/08/12 13:00:13;;;;;;;2.72;2.08;;;;;;;25.15;35.30;99886.44;5051350;28;20044;-60
2022/08/12 13:02:56;;;;;;;2.35;2.03;;;;;;;25.13;34.73;99884.03;5051882;28;20175;-64
2022/08/12 13:05:35;;;;;;;2.80;1.90;;;;;;;25.04;34.84;99880.50;5029766;28;20042;-62
2022/08/12 13:08:12;;;;;;;5.38;2.08;;;;;;;25.05;34.68;99879.38;5054400;28;20032;-61
2022/08/12 13:10:38;;;;;;;4.93;2.03;;;;;;;25.06;35.11;99881.00;5053303;28;20094;-61
2022/08/12 13:13:06;;;;;;;2.53;1.80;;;;;;;25.04;34.61;99883.22;5071592;28;20139;-60
2022/08/12 13:15:32;;;;;;;2.53;2.22;;;;;;;25.04;35.42;99879.72;5056168;28;20044;-59
2022/08/12 13:18:04;;;;;;;2.22;2.03;;;;;;;25.06;34.24;99875.56;5065494;28;20041;-60